createdAt,value
2023-02-04T00:01:06.941Z,5.54
2023-02-04T00:06:10.380Z,5.43
2023-02-04T00:11:14.628Z,5.45
2023-02-04T00:16:17.571Z,5.68
2023-02-04T00:21:20.387Z,5.74
2023-02-04T00:26:24.503Z,5.70
2023-02-04T00:31:27.309Z,5.85
2023-02-04T00:36:33.194Z,5.80
2023-02-04T00:41:37.350Z,5.42
2023-02-04T00:46:40.235Z,5.20
2023-02-04T00:51:46.380Z,5.05
2023-02-04T00:56:50.555Z,4.71
2023-02-04T01:01:53.419Z,4.60
2023-02-04T01:06:56.725Z,4.42
2023-02-04T01:12:03.546Z,4.57
2023-02-04T01:17:06.316Z,4.57
2023-02-04T01:22:09.122Z,4.48
2023-02-04T01:27:13.368Z,4.29
2023-02-04T01:32:16.406Z,4.25
2023-02-04T01:37:19.143Z,4.45
2023-02-04T01:42:23.348Z,4.53
2023-02-04T01:47:26.193Z,4.44
2023-02-04T01:52:32.735Z,4.46
2023-02-04T01:57:37.942Z,4.79
2023-02-04T02:02:43.606Z,5.20
2023-02-04T02:07:46.976Z,5.13
2023-02-04T02:12:52.340Z,5.20
2023-02-04T02:17:56.368Z,5.43
2023-02-04T02:23:07.476Z,5.31
2023-02-04T02:28:16.718Z,5.50
2023-02-04T02:33:21.990Z,5.73
2023-02-04T02:38:25.801Z,5.81
2023-02-04T02:43:31.762Z,5.43
2023-02-04T02:48:34.745Z,5.57
2023-02-04T02:53:37.670Z,5.23
2023-02-04T02:58:42.036Z,4.92
2023-02-04T03:03:49.161Z,4.50
2023-02-04T03:08:57.267Z,4.48
2023-02-04T03:14:02.359Z,3.93
2023-02-04T03:19:08.286Z,3.76
2023-02-04T03:24:11.288Z,3.72
2023-02-04T03:29:15.711Z,3.73
2023-02-04T03:34:18.643Z,3.58
2023-02-04T03:39:21.639Z,3.59
2023-02-04T03:44:26.882Z,3.71
2023-02-04T03:49:29.764Z,3.69
2023-02-04T03:54:32.496Z,3.46
2023-02-04T03:59:36.958Z,3.61
2023-02-04T04:04:39.769Z,3.93
2023-02-04T04:09:42.881Z,4.03
2023-02-04T04:14:47.105Z,4.17
2023-02-04T04:19:50.426Z,4.47
2023-02-04T04:24:53.226Z,4.48
2023-02-04T04:29:57.799Z,4.73
2023-02-04T04:35:00.571Z,4.34
2023-02-04T04:40:03.330Z,4.57
2023-02-04T04:45:11.228Z,4.83
2023-02-04T04:50:14.251Z,5.03
2023-02-04T04:55:17.232Z,5.20
2023-02-04T05:00:23.036Z,5.32
2023-02-04T05:05:26.076Z,5.20
2023-02-04T05:10:29.218Z,5.08
2023-02-04T05:15:33.424Z,4.83
2023-02-04T05:20:36.140Z,5.18
2023-02-04T05:25:39.280Z,5.03
2023-02-04T05:30:44.515Z,4.84
2023-02-04T05:35:49.098Z,4.52
2023-02-04T05:40:52.612Z,4.38
2023-02-04T05:45:57.801Z,3.92
2023-02-04T05:51:00.559Z,3.93
2023-02-04T05:56:03.316Z,3.93
2023-02-04T06:01:07.702Z,3.67
2023-02-04T06:06:10.407Z,3.87
2023-02-04T06:11:13.560Z,3.65
2023-02-04T06:16:17.685Z,3.72
2023-02-04T06:21:20.518Z,3.30
2023-02-04T06:26:23.456Z,3.27
2023-02-04T06:31:27.784Z,3.28
2023-02-04T06:36:30.621Z,3.21
2023-02-04T06:41:33.432Z,3.11
2023-02-04T06:46:37.523Z,3.10
2023-02-04T06:51:40.339Z,3.35
2023-02-04T06:56:43.749Z,3.58
2023-02-04T07:01:47.927Z,3.45
2023-02-04T07:06:50.795Z,3.53
2023-02-04T07:11:54.455Z,3.95
2023-02-04T07:16:58.745Z,4.09
2023-02-04T07:22:01.620Z,4.34
2023-02-04T07:27:04.530Z,4.35
2023-02-04T07:32:08.835Z,4.63
2023-02-04T07:37:11.628Z,4.48
2023-02-04T07:42:14.544Z,4.77
2023-02-04T07:47:27.683Z,4.83
2023-02-04T07:52:30.423Z,5.04
2023-02-04T07:57:33.609Z,5.31
2023-02-04T08:02:37.790Z,5.40
2023-02-04T08:07:40.882Z,5.07
2023-02-04T08:12:44.286Z,5.16
2023-02-04T08:17:48.535Z,5.18
2023-02-04T08:22:51.577Z,5.40
2023-02-04T08:27:54.441Z,5.48
2023-02-04T08:32:58.635Z,5.68
2023-02-04T08:38:01.460Z,5.76
2023-02-04T08:43:04.360Z,5.42
2023-02-04T08:48:09.498Z,5.71
2023-02-04T08:53:12.292Z,5.35
2023-02-04T08:58:15.050Z,5.67
2023-02-04T09:03:19.299Z,6.00
2023-02-04T09:08:22.072Z,6.17
2023-02-04T09:13:25.271Z,6.24
2023-02-04T09:18:30.670Z,6.17
2023-02-04T09:23:33.410Z,5.92
2023-02-04T09:28:36.261Z,5.97
2023-02-04T09:33:40.411Z,5.79
2023-02-04T09:38:46.285Z,5.95
2023-02-04T09:43:49.179Z,6.03
2023-02-04T09:48:53.528Z,6.74
2023-02-04T09:54:04.284Z,6.44
2023-02-04T09:59:12.982Z,6.17
2023-02-04T10:04:17.159Z,6.17
2023-02-04T10:09:20.297Z,6.51
2023-02-04T10:14:24.564Z,6.89
2023-02-04T10:19:31.481Z,6.58
2023-02-04T10:24:35.545Z,6.70
2023-02-04T10:29:40.292Z,6.72
2023-02-04T10:34:45.110Z,7.08
2023-02-04T10:39:48.805Z,6.93
2023-02-04T10:44:52.028Z,7.59
2023-02-04T10:49:58.622Z,7.77
2023-02-04T10:55:03.481Z,8.02
2023-02-04T11:00:15.505Z,8.38
2023-02-04T11:05:23.405Z,8.57
2023-02-04T11:10:31.669Z,8.81
2023-02-04T11:15:40.031Z,8.64
2023-02-04T11:20:44.323Z,8.52
2023-02-04T11:25:48.736Z,8.49
2023-02-04T11:31:00.899Z,8.74
2023-02-04T11:36:07.207Z,8.56
2023-02-04T11:41:17.649Z,8.55
2023-02-04T11:46:21.019Z,8.59
2023-02-04T11:51:31.623Z,8.67
2023-02-04T11:56:34.386Z,8.21
2023-02-04T12:01:37.204Z,8.54
2023-02-04T12:06:43.078Z,8.82
2023-02-04T12:11:53.184Z,8.86
2023-02-04T12:16:56.815Z,8.31
2023-02-04T12:22:00.954Z,8.32
2023-02-04T12:27:03.714Z,8.43
2023-02-04T12:32:06.619Z,8.29
2023-02-04T12:37:10.772Z,7.99
2023-02-04T12:42:13.527Z,7.32
2023-02-04T12:47:16.286Z,7.41
2023-02-04T12:52:20.501Z,7.59
2023-02-04T12:57:23.260Z,7.62
2023-02-04T13:02:26.258Z,7.26
2023-02-04T13:07:30.471Z,7.09
2023-02-04T13:12:33.359Z,7.16
2023-02-04T13:17:36.160Z,7.08
2023-02-04T13:22:40.358Z,7.34
2023-02-04T13:27:43.264Z,7.49
2023-02-04T13:32:46.162Z,7.68
2023-02-04T13:37:50.354Z,7.92
2023-02-04T13:42:53.194Z,7.61
2023-02-04T13:47:55.921Z,7.43
2023-02-04T13:53:00.041Z,7.27
2023-02-04T13:58:02.827Z,7.31
2023-02-04T14:03:05.732Z,7.15
2023-02-04T14:08:09.891Z,6.93
2023-02-04T14:13:12.649Z,7.11
2023-02-04T14:18:16.633Z,6.95
2023-02-04T14:23:20.750Z,7.01
2023-02-04T14:28:23.540Z,6.81
2023-02-04T14:33:26.377Z,6.82
2023-02-04T14:38:31.685Z,6.89
2023-02-04T14:43:37.258Z,6.85
2023-02-04T14:48:40.099Z,6.57
2023-02-04T14:53:48.302Z,6.75
2023-02-04T14:58:51.645Z,6.75
2023-02-04T15:03:54.499Z,6.80
2023-02-04T15:08:59.066Z,7.04
2023-02-04T15:14:04.982Z,6.87
2023-02-04T15:19:08.590Z,7.00
2023-02-04T15:24:13.910Z,6.80
2023-02-04T15:29:17.647Z,6.86
2023-02-04T15:34:20.574Z,6.77
2023-02-04T15:39:24.834Z,6.82
2023-02-04T15:44:27.692Z,6.66
2023-02-04T15:49:30.527Z,6.56
2023-02-04T15:54:34.680Z,6.28
2023-02-04T15:59:37.539Z,6.39
2023-02-04T16:04:41.545Z,6.25
2023-02-04T16:09:45.648Z,6.20
2023-02-04T16:14:48.580Z,6.13
2023-02-04T16:19:51.490Z,5.99
2023-02-04T16:24:55.567Z,5.84
2023-02-04T16:29:58.686Z,5.83
2023-02-04T16:35:04.223Z,5.80
2023-02-04T16:40:11.116Z,5.85
2023-02-04T16:45:14.045Z,5.81
2023-02-04T16:50:17.195Z,5.68
2023-02-04T16:55:21.334Z,5.74
2023-02-04T17:00:24.455Z,5.74
2023-02-04T17:05:27.288Z,5.75
2023-02-04T17:10:48.917Z,5.58
2023-02-04T17:15:51.686Z,5.71
2023-02-04T17:20:54.614Z,5.50
2023-02-04T17:25:58.697Z,5.36
2023-02-04T17:31:01.515Z,5.59
2023-02-04T17:36:05.219Z,5.34
2023-02-04T17:41:09.361Z,5.15
2023-02-04T17:46:12.136Z,5.01
2023-02-04T17:51:14.958Z,5.00
2023-02-04T17:56:21.343Z,4.93
2023-02-04T18:01:25.312Z,5.09
2023-02-04T18:06:29.133Z,4.68
2023-02-04T18:11:39.374Z,4.64
2023-02-04T18:16:42.341Z,4.78
2023-02-04T18:21:45.459Z,4.95
2023-02-04T18:26:51.518Z,4.95
2023-02-04T18:31:57.139Z,4.77
2023-02-04T18:37:01.326Z,4.97
2023-02-04T18:42:14.455Z,4.88
2023-02-04T18:47:31.410Z,4.99
2023-02-04T18:52:38.676Z,5.08
2023-02-04T18:57:42.785Z,4.88
2023-02-04T19:02:49.424Z,4.72
2023-02-04T19:07:58.026Z,4.58
2023-02-04T19:13:17.900Z,4.84
2023-02-04T19:18:25.552Z,4.86
2023-02-04T19:23:28.688Z,4.81
2023-02-04T19:28:37.189Z,4.68
2023-02-04T19:33:42.994Z,4.76
2023-02-04T19:38:52.080Z,4.66
2023-02-04T19:44:25.266Z,4.28
2023-02-04T19:49:30.700Z,3.79
2023-02-04T19:54:38.468Z,3.79
2023-02-04T19:59:42.651Z,3.87
2023-02-04T20:04:50.159Z,3.82
2023-02-04T20:09:55.734Z,3.94
2023-02-04T20:15:02.354Z,3.74
2023-02-04T20:20:28.495Z,3.60
2023-02-04T20:25:41.619Z,3.57
2023-02-04T20:30:46.416Z,3.30
2023-02-04T20:36:31.858Z,3.19
2023-02-04T20:41:38.175Z,3.18
2023-02-04T20:46:42.397Z,3.01
2023-02-04T20:51:45.230Z,2.90
2023-02-04T20:56:47.997Z,2.90
2023-02-04T21:01:53.498Z,3.00
2023-02-04T21:07:01.057Z,2.77
2023-02-04T21:12:04.392Z,2.50
2023-02-04T21:17:10.138Z,2.35
2023-02-04T21:22:15.052Z,2.21
2023-02-04T21:27:21.950Z,2.50
2023-02-04T21:32:27.380Z,2.57
2023-02-04T21:37:30.210Z,2.38
2023-02-04T21:42:33.609Z,2.25
2023-02-04T21:47:40.018Z,2.11
2023-02-04T21:52:46.766Z,2.14
2023-02-04T21:57:52.211Z,2.13
2023-02-04T22:02:56.407Z,2.25
2023-02-04T22:07:59.937Z,1.98
2023-02-04T22:13:04.510Z,1.94
2023-02-04T22:18:08.638Z,1.99
2023-02-04T22:23:11.495Z,2.13
2023-02-04T22:28:14.520Z,2.04
2023-02-04T22:33:18.663Z,1.77
2023-02-04T22:38:23.850Z,1.84
2023-02-04T22:43:26.650Z,1.94
2023-02-04T22:48:30.834Z,1.80
2023-02-04T22:53:35.933Z,1.69
2023-02-04T22:58:38.756Z,1.73
2023-02-04T23:03:43.032Z,1.67
2023-02-04T23:08:47.155Z,1.67
2023-02-04T23:13:50.333Z,1.69
2023-02-04T23:18:54.455Z,1.65
2023-02-04T23:23:57.233Z,1.68
2023-02-04T23:29:01.251Z,1.55
2023-02-04T23:34:05.371Z,1.57
2023-02-04T23:39:08.118Z,1.41
2023-02-04T23:44:10.940Z,1.46
2023-02-04T23:49:15.865Z,1.49
2023-02-04T23:54:18.692Z,1.38
2023-02-04T23:59:21.546Z,1.43
